Time,TemperatureF,DewpointF,PressureIn,WindDirection,WindDirectionDegrees,WindSpeedMPH,WindSpeedGustMPH,Humidity,HourlyPrecipIn,Conditions,Clouds,dailyrainin,SolarRadiationWatts/m^2,SoftwareType,DateUTC
2013-09-24 00:00:00,38.0,37.0,-100.00,SSW,202,0.0,-999.0,95,-99.99,,,-99.99,0.000000,,2013-09-24 05:00:00,
2013-09-24 00:43:00,38.0,37.0,-100.00,SSW,202,0.0,-999.0,95,-99.99,,,-99.99,0.000000,,2013-09-24 05:43:00,
2013-09-24 00:53:00,38.0,37.0,-100.00,SSW,202,0.0,-999.0,95,-99.99,,,-99.99,0.000000,,2013-09-24 05:53:00,
2013-09-24 01:00:00,39.0,38.0,-100.00,SSW,202,0.0,-999.0,95,-99.99,,,-99.99,0.000000,,2013-09-24 06:00:00,
2013-09-24 01:42:00,39.0,38.0,-100.00,SSW,202,0.0,-999.0,95,-99.99,,,-99.99,0.000000,,2013-09-24 06:42:00,
2013-09-24 01:52:00,39.0,38.0,-100.00,SSW,202,0.0,-999.0,95,-99.99,,,-99.99,0.000000,,2013-09-24 06:52:00,
2013-09-24 02:00:00,38.0,37.0,-100.00,SSW,202,0.0,-999.0,95,-99.99,,,-99.99,0.000000,,2013-09-24 07:00:00,
2013-09-24 02:43:00,38.0,37.0,-100.00,SSW,202,0.0,-999.0,95,-99.99,,,-99.99,0.000000,,2013-09-24 07:43:00,
2013-09-24 02:52:00,38.0,37.0,-100.00,SSW,202,0.0,-999.0,95,-99.99,,,-99.99,0.000000,,2013-09-24 07:52:00,
2013-09-24 03:00:00,38.0,37.0,-100.00,South,180,0.0,-999.0,96,-99.99,,,-99.99,0.000000,,2013-09-24 08:00:00,
2013-09-24 03:42:00,38.0,37.0,-100.00,South,180,0.0,-999.0,96,-99.99,,,-99.99,0.000000,,2013-09-24 08:42:00,
2013-09-24 03:52:00,38.0,37.0,-100.00,South,180,0.0,-999.0,96,-99.99,,,-99.99,0.000000,,2013-09-24 08:52:00,
2013-09-24 04:00:00,38.0,37.0,-100.00,South,180,0.0,-999.0,96,-99.99,,,-99.99,0.000000,,2013-09-24 09:00:00,
2013-09-24 04:43:00,38.0,37.0,-100.00,South,180,0.0,-999.0,96,-99.99,,,-99.99,0.000000,,2013-09-24 09:43:00,
2013-09-24 04:54:00,38.0,37.0,-100.00,South,180,0.0,-999.0,96,-99.99,,,-99.99,0.000000,,2013-09-24 09:54:00,
2013-09-24 05:00:00,38.0,37.0,-100.00,SSW,202,0.0,-999.0,96,-99.99,,,-99.99,0.000000,,2013-09-24 10:00:00,
2013-09-24 05:53:00,38.0,37.0,-100.00,SSW,202,0.0,-999.0,96,-99.99,,,-99.99,0.000000,,2013-09-24 10:53:00,
2013-09-24 06:00:00,38.0,37.0,-100.00,South,180,0.0,-999.0,96,-99.99,,,-99.99,0.000000,,2013-09-24 11:00:00,
2013-09-24 06:42:00,38.0,37.0,-100.00,South,180,0.0,-999.0,96,-99.99,,,-99.99,0.000000,,2013-09-24 11:42:00,
2013-09-24 06:52:00,38.0,37.0,-100.00,South,180,0.0,-999.0,96,-99.99,,,-99.99,0.000000,,2013-09-24 11:52:00,
2013-09-24 07:00:00,39.0,38.0,-100.00,SSE,157,0.0,-999.0,96,-99.99,,,-99.99,3.480000,,2013-09-24 12:00:00,
2013-09-24 07:42:00,39.0,38.0,-100.00,SSE,157,0.0,-999.0,96,-99.99,,,-99.99,3.480000,,2013-09-24 12:42:00,
2013-09-24 07:52:00,39.0,38.0,-100.00,SSE,157,0.0,-999.0,96,-99.99,,,-99.99,3.480000,,2013-09-24 12:52:00,
2013-09-24 08:00:00,44.0,43.0,-100.00,SSE,157,0.0,-999.0,96,-99.99,,,-99.99,61.480000,,2013-09-24 13:00:00,
2013-09-24 08:42:00,44.0,43.0,-100.00,SSE,157,0.0,-999.0,96,-99.99,,,-99.99,61.480000,,2013-09-24 13:42:00,
2013-09-24 08:52:00,44.0,43.0,-100.00,SSE,157,0.0,-999.0,96,-99.99,,,-99.99,61.480000,,2013-09-24 13:52:00,
2013-09-24 09:00:00,54.0,53.0,-100.00,SSE,157,1.0,-999.0,96,-99.99,,,-99.99,164.720001,,2013-09-24 14:00:00,
2013-09-24 09:42:00,54.0,53.0,-100.00,SSE,157,1.0,-999.0,96,-99.99,,,-99.99,164.720001,,2013-09-24 14:42:00,
2013-09-24 09:52:00,54.0,53.0,-100.00,SSE,157,1.0,-999.0,96,-99.99,,,-99.99,164.720001,,2013-09-24 14:52:00,
2013-09-24 10:00:00,59.0,56.0,-100.00,South,180,4.0,-999.0,89,-99.99,,,-99.99,344.519989,,2013-09-24 15:00:00,
2013-09-24 10:43:00,59.0,56.0,-100.00,South,180,4.0,-999.0,89,-99.99,,,-99.99,344.519989,,2013-09-24 15:43:00,
2013-09-24 10:54:00,59.0,56.0,-100.00,South,180,4.0,-999.0,89,-99.99,,,-99.99,344.519989,,2013-09-24 15:54:00,
2013-09-24 11:00:00,61.0,55.0,-100.00,South,180,4.0,-999.0,80,-99.99,,,-99.99,342.200012,,2013-09-24 16:00:00,
2013-09-24 11:43:00,61.0,55.0,-100.00,South,180,4.0,-999.0,80,-99.99,,,-99.99,342.200012,,2013-09-24 16:43:00,
2013-09-24 11:53:00,61.0,55.0,-100.00,South,180,4.0,-999.0,80,-99.99,,,-99.99,342.200012,,2013-09-24 16:53:00,
2013-09-24 12:00:00,64.0,54.0,-100.00,SSE,157,4.0,-999.0,71,-99.99,,,-99.99,655.400024,,2013-09-24 17:00:00,
2013-09-24 12:43:00,64.0,54.0,-100.00,SSE,157,4.0,-999.0,71,-99.99,,,-99.99,655.400024,,2013-09-24 17:43:00,
2013-09-24 12:54:00,64.0,54.0,-100.00,SSE,157,4.0,-999.0,71,-99.99,,,-99.99,655.400024,,2013-09-24 17:54:00,
2013-09-24 13:00:00,63.0,54.0,-100.00,SSE,157,5.0,-999.0,71,-99.99,,,-99.99,618.280029,,2013-09-24 18:00:00,
2013-09-24 13:42:00,63.0,54.0,-100.00,SSE,157,5.0,-999.0,71,-99.99,,,-99.99,618.280029,,2013-09-24 18:42:00,
2013-09-24 13:52:00,63.0,54.0,-100.00,SSE,157,5.0,-999.0,71,-99.99,,,-99.99,618.280029,,2013-09-24 18:52:00,
2013-09-24 14:00:00,64.0,54.0,-100.00,SSE,157,4.0,-999.0,69,-99.99,,,-99.99,533.599976,,2013-09-24 19:00:00,
2013-09-24 14:42:00,64.0,54.0,-100.00,SSE,157,4.0,-999.0,69,-99.99,,,-99.99,533.599976,,2013-09-24 19:42:00,
2013-09-24 14:52:00,64.0,54.0,-100.00,SSE,157,4.0,-999.0,69,-99.99,,,-99.99,533.599976,,2013-09-24 19:52:00,
2013-09-24 15:00:00,64.0,52.0,-100.00,SSE,157,4.0,-999.0,65,-99.99,,,-99.99,510.399994,,2013-09-24 20:00:00,
2013-09-24 15:42:00,64.0,52.0,-100.00,SSE,157,4.0,-999.0,65,-99.99,,,-99.99,510.399994,,2013-09-24 20:42:00,
2013-09-24 15:52:00,64.0,52.0,-100.00,SSE,157,4.0,-999.0,65,-99.99,,,-99.99,510.399994,,2013-09-24 20:52:00,
2013-09-24 16:00:00,64.0,52.0,-100.00,SSE,157,3.0,-999.0,64,-99.99,,,-99.99,441.959991,,2013-09-24 21:00:00,
2013-09-24 16:44:00,64.0,52.0,-100.00,SSE,157,3.0,-999.0,64,-99.99,,,-99.99,441.959991,,2013-09-24 21:44:00,
2013-09-24 16:54:00,64.0,52.0,-100.00,SSE,157,3.0,-999.0,64,-99.99,,,-99.99,441.959991,,2013-09-24 21:54:00,
2013-09-24 17:00:00,63.0,52.0,-100.00,SSE,157,3.0,-999.0,66,-99.99,,,-99.99,334.079987,,2013-09-24 22:00:00,
2013-09-24 17:43:00,63.0,52.0,-100.00,SSE,157,3.0,-999.0,66,-99.99,,,-99.99,334.079987,,2013-09-24 22:43:00,
2013-09-24 17:54:00,63.0,52.0,-100.00,SSE,157,3.0,-999.0,66,-99.99,,,-99.99,334.079987,,2013-09-24 22:54:00,
2013-09-24 18:00:00,60.0,50.0,-100.00,SE,135,2.0,-999.0,70,-99.99,,,-99.99,134.559998,,2013-09-24 23:00:00,
2013-09-24 18:43:00,60.0,50.0,-100.00,SE,135,2.0,-999.0,70,-99.99,,,-99.99,134.559998,,2013-09-24 23:43:00,
2013-09-24 18:53:00,60.0,50.0,-100.00,SE,135,2.0,-999.0,70,-99.99,,,-99.99,134.559998,,2013-09-24 23:53:00,
2013-09-24 19:00:00,55.0,49.0,-100.00,SSE,157,1.0,-999.0,80,-99.99,,,-99.99,16.240000,,2013-09-25 00:00:00,
2013-09-24 19:42:00,55.0,49.0,-100.00,SSE,157,1.0,-999.0,80,-99.99,,,-99.99,16.240000,,2013-09-25 00:42:00,
2013-09-24 19:52:00,55.0,49.0,-100.00,SSE,157,1.0,-999.0,80,-99.99,,,-99.99,16.240000,,2013-09-25 00:52:00,
2013-09-24 20:00:00,47.0,44.0,-100.00,SSW,202,0.0,-999.0,90,-99.99,,,-99.99,0.000000,,2013-09-25 01:00:00,
2013-09-24 20:42:00,47.0,44.0,-100.00,SSW,202,0.0,-999.0,90,-99.99,,,-99.99,0.000000,,2013-09-25 01:42:00,
2013-09-24 20:52:00,47.0,44.0,-100.00,SSW,202,0.0,-999.0,90,-99.99,,,-99.99,0.000000,,2013-09-25 01:52:00,
2013-09-24 21:00:00,45.0,43.0,-100.00,South,180,0.0,-999.0,92,-99.99,,,-99.99,0.000000,,2013-09-25 02:00:00,
2013-09-24 21:42:00,45.0,43.0,-100.00,South,180,0.0,-999.0,92,-99.99,,,-99.99,0.000000,,2013-09-25 02:42:00,
2013-09-24 21:52:00,45.0,43.0,-100.00,South,180,0.0,-999.0,92,-99.99,,,-99.99,0.000000,,2013-09-25 02:52:00,
2013-09-24 22:00:00,44.0,42.0,-100.00,South,180,0.0,-999.0,94,-99.99,,,-99.99,0.000000,,2013-09-25 03:00:00,
2013-09-24 22:45:00,44.0,42.0,-100.00,South,180,0.0,-999.0,94,-99.99,,,-99.99,0.000000,,2013-09-25 03:45:00,
2013-09-24 22:55:00,44.0,42.0,-100.00,South,180,0.0,-999.0,94,-99.99,,,-99.99,0.000000,,2013-09-25 03:55:00,
2013-09-24 23:00:00,43.0,41.0,-100.00,South,180,0.0,-999.0,94,-99.99,,,-99.99,0.000000,,2013-09-25 04:00:00,
2013-09-24 23:43:00,43.0,41.0,-100.00,South,180,0.0,-999.0,94,-99.99,,,-99.99,0.000000,,2013-09-25 04:43:00,
2013-09-24 23:54:00,43.0,41.0,-100.00,South,180,0.0,-999.0,94,-99.99,,,-99.99,0.000000,,2013-09-25 04:54:00,